Pagina principale
METAR-TAF:

METAR-TAF

Aeroporti :

Aeroporto di Pisa-San Giusto

Pisa, Italia

latitudine: 43-41N, longitudine: 010-23E, altezza: 2 m

Osservazione

Il bollettino è stato emesso 23 minuti fa, alle 02:45 UTC
Vento 2 kt da ovest/nord-ovest
Temperature 12°C
Umidità 100%
Pressione 1006 hPa
Visibilità 10 km o più
Nuvoloso ad un'altezza di 1500 ft
pioggia debole,

METAR: LIRP 020245Z 30002KT 9999 -RA BKN015 12/12 Q1006 NOSIG

Ora: 04:08 (03:08 UTC)

Previsione

Il bollettino è stato emesso 4 ore e 8 minuti fa, alle 23:00 UTC
Previsione valida dal 02 alle 00 UTC al 02 alle 24 UTC
Vento 7 kt da est
Visibilità: 7000 m
Nuvoloso ad un'altezza di 3000 ft
pioggia
Evoluzione graduale
dal 02 alle 06 UTC al 02 alle 08 UTC
Vento 10 kt da sud-ovest
Visibilità 10 km o più
Nubi sparse ad un'altezza di 3000 ft

TAF: LIRP 012300Z 0200/0224 10007KT 7000 RA BKN030 BECMG 0206/0208 22010KT 9999 SCT030

Osservazioni e previsioni meteorologiche di più di 4000 aeroporti (messaggi METAR e TAF).

Le stazioni disponibili sono rappresentate dai dischi gialli e rossi sulla carta.

Puntare il mouse per vedere il nome della stazione.

Clicca sopra per visualizzare le osservazioni e previsioni meteorologiche.

Per cambiare la mappa : fare clic sui pulsanti verdi con una croce nera per ingrandire, il pulsante verde con un trattino per diminuire, o sulla freccia verde per le mappe adiacenti.


METAR-TAF: